Huntley, MT (59037)

12:16 AM MDT on July 27, 2016 (GMT -0600)
MesoWest | | Change Station

Elev 3000 ft 45.92 °N, 108.25 °W | Updated 40 minutes ago

Mostly Cloudy
Mostly Cloudy
66 °F
Feels Like 66 °F
N
5
Wind Variable Wind from WNW
Gusts 0.0 mph

Today
High -- | Low -- °F
--% Chance of Precip.
Yesterday
High -- | Low -- °F
Precip. -- in
Pressure 29.97 in
Visibility 10.0 miles
Clouds Few 10000 ft
Mostly Cloudy 15000 ft
Dew Point 58 °F
Humidity 75%
Rainfall in
Snow Depth Not available.
5:50 AM 8:47 PM
Waning Gibbous, 46% visible
METAR KBIL 270553Z 00000KT 10SM FEW100 BKN150 21/13 A3008 RMK AO2 SLP148 FRQ LTG CB DSNT NE 60008 T02110128 10306 20200 55015
Pressure 29.97 in
Visibility 10.0 miles
Clouds Few 10000 ft
Mostly Cloudy 15000 ft
Dew Point 58 °F
Humidity 75%
Rainfall in
Snow Depth Not available.
5:50 AM 8:47 PM
Waning Gibbous, 46% visible
METAR KBIL 270553Z 00000KT 10SM FEW100 BKN150 21/13 A3008 RMK AO2 SLP148 FRQ LTG CB DSNT NE 60008 T02110128 10306 20200 55015

10-Day Weather Forecast

Almanac

Astronomy

Jul. 27, 2016 Rise Set
Actual Time
Civil Twilight
Nautical Twilight
Astronomical Twilight
Moon
Length of Visible Light
Length of Day
Tomorrow will be .
, % of the Moon is Illuminated

Today's Extremes

State Highs State Lows

Community

WunderPhotos

Upload Photos

1,927,818 photos uploaded!

WunderBlog® & News

Nearby

Air Quality

  Air Quality AQ Index Pollutant
Not available.

Snow Depth

Station Depth Elevation

Earthquake Activity

City Distance Mag. Time & Date
Minimum magnitude displayed is 2.5.

Coastal Water Temperatures

Place Temperature

Stations

Nearby Weather Stations

Station Location Temp. Windchill Dew Point Humidity Wind Precip. Elev Updated Type
                   

Watches & Warnings

There are currently no watches in effect.